Time;durP1;ratioP1;P1;durP2;ratioP2;P2;SDS_P1;SDS_P2;PMS_P1;PMS_P2;Temp;Humidity;BMP_temperature;BMP_pressure;BME280_temperature;BME280_humidity;BME280_pressure;Samples;Min_cycle;Max_cycle;Signal;HPM_P1;HPM_P2
2022/05/05 00:01:09;;;;;;;11.32;8.93;;;;;;;18.18;50.14;101531.13;4950988;28;20090;-60
2022/05/05 00:03:38;;;;;;;12.70;9.85;;;;;;;18.15;50.03;101531.38;4941192;29;20449;-60
2022/05/05 00:06:05;;;;;;;13.88;9.85;;;;;;;18.08;50.22;101528.31;4941872;28;20492;-64
2022/05/05 00:08:31;;;;;;;12.40;9.55;;;;;;;18.06;50.35;101531.09;4953225;28;20500;-61
2022/05/05 00:16:29;;;;;;;11.17;9.60;;;;;;;17.77;51.29;101527.94;4948544;28;20047;-69
2022/05/05 00:18:55;;;;;;;14.95;9.82;;;;;;;17.71;51.55;101531.91;4950772;29;20362;-61
2022/05/05 00:21:22;;;;;;;12.90;9.27;;;;;;;17.69;51.93;101520.56;4952604;28;20044;-61
2022/05/05 00:23:49;;;;;;;11.55;10.15;;;;;;;17.73;51.84;101523.84;4950785;28;20054;-63
2022/05/05 00:26:16;;;;;;;10.82;9.43;;;;;;;17.72;51.69;101516.81;4950602;29;20122;-60
2022/05/05 00:28:42;;;;;;;19.83;10.60;;;;;;;17.69;51.58;101523.22;4945847;28;20047;-60
2022/05/05 00:31:09;;;;;;;14.15;10.27;;;;;;;17.64;52.15;101517.41;4943155;29;20167;-63
2022/05/05 00:33:36;;;;;;;17.58;10.35;;;;;;;17.56;52.21;101533.91;4954744;29;20086;-68
2022/05/05 00:36:03;;;;;;;12.00;9.93;;;;;;;17.51;52.19;101533.38;4957374;28;20047;-71
2022/05/05 00:38:30;;;;;;;14.38;10.13;;;;;;;17.46;52.47;101528.41;4957153;28;20048;-71
2022/05/05 00:40:57;;;;;;;15.82;10.18;;;;;;;17.40;52.78;101530.69;4957354;28;20047;-61
2022/05/05 00:43:24;;;;;;;12.13;9.80;;;;;;;17.37;52.96;101528.22;4956961;28;20110;-65
2022/05/05 00:45:50;;;;;;;11.75;9.77;;;;;;;17.34;52.45;101524.00;4957271;28;20070;-62
2022/05/05 00:48:17;;;;;;;11.98;9.75;;;;;;;17.34;52.57;101528.47;4956011;28;20098;-65
2022/05/05 00:50:44;;;;;;;13.77;10.13;;;;;;;17.36;52.45;101529.22;4957077;28;20067;-61
2022/05/05 00:53:10;;;;;;;11.25;9.90;;;;;;;17.37;52.29;101521.13;4956959;28;20488;-61
2022/05/05 00:55:39;;;;;;;12.88;10.00;;;;;;;17.39;52.35;101529.81;4956873;28;20547;-69
2022/05/05 00:58:05;;;;;;;13.45;11.30;;;;;;;17.38;52.47;101529.94;4956882;29;20055;-71
2022/05/05 01:00:33;;;;;;;12.35;10.75;;;;;;;17.37;52.42;101536.19;4956731;28;20106;-61
2022/05/05 01:03:00;;;;;;;15.05;11.13;;;;;;;17.35;52.50;101532.81;4957095;28;20047;-71
2022/05/05 01:05:29;;;;;;;16.27;11.48;;;;;;;17.33;52.73;101532.94;4955395;28;20563;-62
2022/05/05 01:07:59;;;;;;;16.02;12.05;;;;;;;17.32;52.66;101525.94;4956826;28;20051;-60
2022/05/05 01:10:26;;;;;;;14.80;12.55;;;;;;;17.31;52.93;101518.94;4956818;28;20055;-62
2022/05/05 01:12:52;;;;;;;14.90;11.82;;;;;;;17.30;52.78;101518.06;4956967;28;20055;-61
2022/05/05 01:15:20;;;;;;;17.33;11.88;;;;;;;17.28;53.33;101517.34;4956710;28;20043;-62
2022/05/05 01:17:47;;;;;;;17.05;11.23;;;;;;;17.28;53.68;101517.34;4956598;28;20051;-61
2022/05/05 01:20:16;;;;;;;13.70;11.43;;;;;;;17.27;53.69;101522.78;4955280;28;20059;-61
2022/05/05 01:22:43;;;;;;;16.55;11.00;;;;;;;17.27;53.57;101517.47;4956291;28;20058;-61
2022/05/05 01:28:10;;;;;;;16.17;9.82;;;;;;;17.33;53.18;101519.66;4956457;28;20043;-61
2022/05/05 01:30:39;;;;;;;12.40;9.60;;;;;;;17.37;52.93;101520.28;4956406;28;20055;-71
2022/05/05 01:33:16;;;;;;;12.43;9.85;;;;;;;17.36;53.01;101522.09;4956340;28;20495;-62
2022/05/05 01:35:44;;;;;;;17.40;10.65;;;;;;;17.31;53.63;101524.22;4955316;28;20576;-62
2022/05/05 01:38:13;;;;;;;15.27;11.07;;;;;;;17.30;53.70;101525.19;4960843;28;20054;-65
2022/05/05 01:40:41;;;;;;;17.45;11.40;;;;;;;17.24;53.83;101528.28;4955039;28;20476;-70
2022/05/05 01:43:08;;;;;;;21.70;11.73;;;;;;;17.20;54.04;101529.47;4956062;28;20046;-62
2022/05/05 01:45:35;;;;;;;15.95;11.52;;;;;;;17.14;54.31;101528.94;4956220;28;20488;-68
2022/05/05 01:48:03;;;;;;;17.55;11.77;;;;;;;17.11;54.65;101529.16;4956786;28;20060;-61
2022/05/05 01:50:32;;;;;;;14.48;11.57;;;;;;;17.04;54.43;101522.63;4955689;28;20066;-61
2022/05/05 01:53:01;;;;;;;14.38;10.85;;;;;;;16.98;54.49;101528.34;4954977;28;20491;-71
2022/05/05 01:55:30;;;;;;;12.30;11.00;;;;;;;16.89;54.71;101529.00;4959570;28;20384;-61
2022/05/05 01:57:58;;;;;;;13.02;11.02;;;;;;;16.83;54.91;101530.25;4959336;28;20058;-61
2022/05/05 02:00:24;;;;;;;13.60;11.48;;;;;;;16.78;54.71;101533.22;4958356;28;20546;-70
2022/05/05 02:02:51;;;;;;;12.20;10.80;;;;;;;16.75;54.94;101533.44;4960749;28;20456;-61
2022/05/05 02:05:18;;;;;;;13.93;11.32;;;;;;;16.74;54.91;101534.41;4955742;28;20051;-65
2022/05/05 02:07:47;;;;;;;12.63;11.00;;;;;;;16.74;54.72;101530.91;4953612;29;20401;-69
2022/05/05 02:10:16;;;;;;;14.63;11.45;;;;;;;16.74;54.89;101529.09;4955844;28;20414;-62
2022/05/05 02:12:44;;;;;;;13.63;12.10;;;;;;;16.74;55.05;101526.44;4955635;28;20047;-67
2022/05/05 02:15:13;;;;;;;13.98;11.73;;;;;;;16.77;55.18;101514.78;4955751;28;20044;-62
2022/05/05 02:17:44;;;;;;;21.17;12.52;;;;;;;16.77;54.91;101512.13;4955472;28;20051;-70
2022/05/05 02:20:12;;;;;;;18.92;12.35;;;;;;;16.78;54.97;101512.00;4955475;28;20051;-64
2022/05/05 02:22:41;;;;;;;16.85;11.07;;;;;;;16.81;54.99;101508.28;4953894;28;20484;-62
2022/05/05 02:25:08;;;;;;;13.07;10.57;;;;;;;16.81;55.04;101509.16;4955494;28;20496;-71
2022/05/05 02:27:49;;;;;;;12.80;10.57;;;;;;;16.85;54.92;101508.94;4955381;28;20488;-61
2022/05/05 02:30:18;;;;;;;13.98;10.15;;;;;;;16.86;54.57;101506.19;4955497;28;20051;-61
2022/05/05 02:32:45;;;;;;;11.88;10.68;;;;;;;16.88;54.50;101501.59;4955476;28;20051;-62
2022/05/05 02:35:12;;;;;;;11.85;10.25;;;;;;;16.90;54.48;101501.50;4955185;28;20044;-62
2022/05/05 02:40:25;;;;;;;12.35;10.80;;;;;;;16.92;54.30;101510.22;4953998;29;20043;-71
2022/05/05 02:42:55;;;;;;;14.98;10.43;;;;;;;16.93;54.19;101507.47;4955152;28;20058;-61
2022/05/05 02:45:22;;;;;;;11.50;10.32;;;;;;;16.93;54.26;101501.31;4954918;28;20456;-71
2022/05/05 02:47:49;;;;;;;12.52;10.38;;;;;;;16.96;54.18;101503.75;4955044;28;20058;-61
2022/05/05 02:50:17;;;;;;;11.77;10.40;;;;;;;16.94;54.28;101501.22;4954734;28;20107;-61
2022/05/05 02:52:44;;;;;;;12.32;10.18;;;;;;;16.93;54.19;101498.69;4954511;28;20114;-61
2022/05/05 02:55:11;;;;;;;13.20;10.57;;;;;;;16.93;54.20;101498.69;4954826;28;20054;-62
2022/05/05 02:57:38;;;;;;;12.82;10.77;;;;;;;16.94;53.88;101495.91;4953767;28;20047;-64
2022/05/05 03:00:11;;;;;;;13.90;11.00;;;;;;;16.94;54.11;101495.91;4954633;28;20530;-61
2022/05/05 03:02:40;;;;;;;14.63;11.35;;;;;;;16.93;54.30;101482.78;4944542;28;20087;-62
2022/05/05 03:05:07;;;;;;;13.18;10.98;;;;;;;16.94;54.04;101489.78;4951235;28;20128;-61
2022/05/05 03:07:34;;;;;;;14.82;11.13;;;;;;;16.94;54.02;101485.31;4951494;28;20051;-61
2022/05/05 03:10:01;;;;;;;16.52;11.32;;;;;;;16.91;54.03;101485.53;4951307;28;20047;-61
2022/05/05 03:12:28;;;;;;;14.07;11.18;;;;;;;16.93;54.39;101474.81;4951402;28;20059;-61
2022/05/05 03:14:55;;;;;;;11.63;10.40;;;;;;;16.90;54.13;101474.97;4950635;28;20039;-70
2022/05/05 03:17:21;;;;;;;14.07;11.20;;;;;;;16.89;54.54;101476.81;4951102;28;20050;-61
2022/05/05 03:19:48;;;;;;;13.07;11.38;;;;;;;16.80;54.63;101482.78;4950893;28;20079;-61
2022/05/05 03:22:15;;;;;;;13.27;11.30;;;;;;;16.71;54.67;101484.28;4951338;28;20410;-68
2022/05/05 03:24:42;;;;;;;18.23;12.95;;;;;;;16.64;54.93;101490.94;4951363;28;20043;-62
2022/05/05 03:27:08;;;;;;;15.63;11.82;;;;;;;16.59;54.99;101493.06;4951464;28;20075;-61
2022/05/05 03:29:35;;;;;;;15.93;12.02;;;;;;;16.54;55.07;101496.03;4951070;28;20151;-61
2022/05/05 03:32:02;;;;;;;18.13;12.05;;;;;;;16.51;55.02;101501.56;4950051;28;20179;-61
2022/05/05 03:34:29;;;;;;;16.58;12.00;;;;;;;16.45;55.12;101500.16;4950884;28;20488;-61
2022/05/05 03:36:55;;;;;;;16.90;12.25;;;;;;;16.44;55.30;101509.09;4950883;29;20047;-70
2022/05/05 03:39:22;;;;;;;15.15;12.07;;;;;;;16.47;55.54;101514.16;4950918;28;20047;-61
2022/05/05 03:41:49;;;;;;;16.00;11.50;;;;;;;16.46;55.52;101514.28;4950918;28;20047;-61
2022/05/05 03:44:15;;;;;;;15.18;11.90;;;;;;;16.47;55.48;101513.34;4950767;28;20094;-61
2022/05/05 03:46:42;;;;;;;13.13;11.65;;;;;;;16.49;55.21;101519.34;4950716;28;20047;-61
2022/05/05 03:49:10;;;;;;;14.38;11.95;;;;;;;16.42;55.35;101524.25;4957432;28;20058;-61
2022/05/05 03:51:36;;;;;;;13.25;11.50;;;;;;;16.38;55.70;101528.06;4950522;28;20055;-65
2022/05/05 03:54:03;;;;;;;14.25;12.10;;;;;;;16.29;55.79;101531.31;4950728;28;20248;-61
2022/05/05 03:56:30;;;;;;;15.70;12.00;;;;;;;16.22;55.93;101530.06;4950568;28;20051;-62
2022/05/05 03:58:57;;;;;;;16.13;12.27;;;;;;;16.23;55.89;101527.31;4950992;28;20054;-60
2022/05/05 04:01:23;;;;;;;16.00;12.35;;;;;;;16.23;56.03;101529.94;4950794;28;20098;-62
2022/05/05 04:03:50;;;;;;;12.85;11.52;;;;;;;16.16;56.05;101534.81;4953512;28;20043;-61
2022/05/05 04:06:18;;;;;;;16.05;12.50;;;;;;;16.16;55.63;101542.78;4955563;29;20444;-61
2022/05/05 04:08:45;;;;;;;14.68;11.88;;;;;;;16.13;55.69;101542.13;4956961;28;20055;-62
2022/05/05 04:11:12;;;;;;;16.08;11.77;;;;;;;16.07;56.06;101542.53;4956762;28;20043;-61
2022/05/05 04:13:39;;;;;;;14.23;12.50;;;;;;;16.05;55.94;101545.28;4957274;28;20055;-63
2022/05/05 04:16:08;;;;;;;16.27;12.73;;;;;;;16.01;56.02;101549.09;4957016;28;20050;-61
2022/05/05 04:18:35;;;;;;;16.92;13.05;;;;;;;16.00;56.00;101552.69;4960533;28;20102;-65
2022/05/05 04:21:02;;;;;;;13.90;11.90;;;;;;;15.97;55.91;101564.34;4956509;28;20055;-61
2022/05/05 04:23:29;;;;;;;16.83;12.27;;;;;;;15.97;56.05;101558.19;4968953;28;20514;-62
2022/05/05 04:26:12;;;;;;;20.33;12.38;;;;;;;15.98;56.03;101563.38;4956892;28;20555;-61
2022/05/05 04:28:42;;;;;;;16.95;12.23;;;;;;;15.96;55.86;101567.06;4968321;28;20062;-62
2022/05/05 04:31:20;;;;;;;19.20;12.45;;;;;;;15.94;55.93;101576.91;4956866;28;20055;-64
2022/05/05 04:33:46;;;;;;;18.55;12.95;;;;;;;15.96;56.01;101572.34;4956772;28;20047;-61
2022/05/05 04:36:14;;;;;;;16.55;12.27;;;;;;;15.96;56.27;101572.34;4956742;28;20050;-61
2022/05/05 04:38:41;;;;;;;13.73;12.10;;;;;;;16.00;56.13;101571.22;4966681;28;20065;-61
2022/05/05 04:41:07;;;;;;;17.35;12.63;;;;;;;16.01;56.04;101575.56;4957030;28;20106;-63
2022/05/05 04:43:34;;;;;;;17.38;11.90;;;;;;;16.02;56.16;101574.59;4956917;28;20562;-62
2022/05/05 04:46:01;;;;;;;15.40;13.18;;;;;;;16.02;55.85;101579.06;4956767;28;20059;-62
2022/05/05 04:48:28;;;;;;;16.55;12.38;;;;;;;16.00;56.25;101585.28;4956511;28;20126;-61
2022/05/05 04:50:54;;;;;;;20.27;13.18;;;;;;;16.00;56.11;101585.28;4949871;28;20055;-62
2022/05/05 04:53:21;;;;;;;14.38;12.40;;;;;;;16.05;56.50;101590.31;4951962;28;20054;-61
2022/05/05 04:55:48;;;;;;;14.43;12.00;;;;;;;16.07;56.51;101591.03;4954240;28;20055;-62
2022/05/05 04:58:19;;;;;;;6.53;4.60;;;;;;;16.62;56.02;101585.59;4956368;28;20053;-62
2022/05/05 05:00:46;;;;;;;9.10;5.78;;;;;;;17.07;56.93;101585.19;4956399;28;20052;-61
2022/05/05 05:03:32;;;;;;;9.52;5.55;;;;;;;17.36;57.44;101579.63;4956588;28;20051;-61
2022/05/05 05:05:59;;;;;;;13.77;10.63;;;;;;;17.58;57.36;101579.72;4956604;28;20051;-59
2022/05/05 05:08:25;;;;;;;14.60;12.30;;;;;;;17.11;57.71;101574.25;4955076;28;20051;-58
2022/05/05 05:10:52;;;;;;;19.92;13.90;;;;;;;16.91;57.67;101573.03;4954175;28;20050;-64
2022/05/05 05:13:19;;;;;;;16.35;12.35;;;;;;;16.88;57.66;101573.19;4951863;28;20109;-59
2022/05/05 05:15:45;;;;;;;18.10;13.07;;;;;;;16.89;57.58;101571.41;4953844;28;20389;-61
2022/05/05 05:18:12;;;;;;;16.10;13.32;;;;;;;16.92;57.61;101568.56;4953760;28;20043;-58
2022/05/05 05:20:39;;;;;;;20.27;14.48;;;;;;;16.94;57.30;101566.66;4953091;28;20464;-58
2022/05/05 05:23:05;;;;;;;24.90;15.45;;;;;;;16.95;57.29;101565.69;4953495;28;20047;-59
2022/05/05 05:25:32;;;;;;;20.17;15.45;;;;;;;16.96;57.04;101570.03;4962056;28;20550;-59
2022/05/05 05:28:04;;;;;;;18.98;13.93;;;;;;;17.02;56.88;101574.91;4955170;28;20508;-59
2022/05/05 05:30:38;;;;;;;17.98;13.50;;;;;;;17.08;57.25;101578.94;4957478;28;20090;-59
2022/05/05 05:33:05;;;;;;;15.82;12.57;;;;;;;17.10;57.06;101584.97;4952930;28;20051;-60
2022/05/05 05:35:32;;;;;;;18.35;12.65;;;;;;;17.14;56.75;101582.00;4952684;28;20055;-59
2022/05/05 05:37:59;;;;;;;16.60;12.40;;;;;;;17.18;57.00;101593.25;4952707;28;20055;-62
2022/05/05 05:40:25;;;;;;;18.48;12.88;;;;;;;17.21;56.76;101587.69;4953010;28;20113;-58
2022/05/05 05:42:52;;;;;;;16.90;13.05;;;;;;;17.28;56.60;101594.28;4952934;28;20496;-65
2022/05/05 05:45:18;;;;;;;18.10;12.88;;;;;;;17.32;56.30;101597.56;4951561;28;20393;-59
2022/05/05 05:47:45;;;;;;;17.95;12.50;;;;;;;17.40;56.26;101611.09;4952545;28;20134;-59
2022/05/05 05:50:12;;;;;;;19.95;12.05;;;;;;;17.43;56.35;101615.34;4952639;28;20078;-58
2022/05/05 05:52:38;;;;;;;18.38;10.80;;;;;;;17.52;55.95;101617.34;4952847;28;20055;-59
2022/05/05 05:55:06;;;;;;;31.55;9.25;;;;;;;17.91;56.27;101625.16;4952124;28;20039;-70
2022/05/05 05:57:32;;;;;;;29.92;9.27;;;;;;;18.12;56.30;101625.41;4952647;28;20488;-60
2022/05/05 05:59:59;;;;;;;19.73;8.18;;;;;;;18.33;56.58;101617.63;4952404;29;20047;-60
2022/05/05 06:05:17;;;;;;;20.05;9.18;;;;;;;18.55;56.34;101616.84;4952383;29;20058;-59
2022/05/05 06:07:44;;;;;;;14.52;10.55;;;;;;;18.51;56.43;101606.56;4952253;28;20043;-59
2022/05/05 06:10:12;;;;;;;14.23;9.90;;;;;;;18.31;56.20;101600.97;4951999;28;20109;-59
2022/05/05 06:12:38;;;;;;;13.40;10.30;;;;;;;18.23;56.16;101612.19;4953152;28;20050;-60
2022/05/05 06:15:06;;;;;;;13.40;10.50;;;;;;;18.19;55.86;101610.69;4959678;28;20082;-60
2022/05/05 06:17:33;;;;;;;14.38;10.50;;;;;;;18.03;56.14;101618.97;4952833;28;20507;-60
2022/05/05 06:20:00;;;;;;;14.80;10.75;;;;;;;17.95;56.17;101622.22;4955802;28;20047;-60
2022/05/05 06:22:27;;;;;;;15.32;10.75;;;;;;;17.93;55.92;101624.13;4947928;28;20064;-63
2022/05/05 06:24:54;;;;;;;13.50;10.10;;;;;;;17.87;56.10;101627.19;4945786;28;20989;-63
2022/05/05 06:27:21;;;;;;;13.60;10.40;;;;;;;17.84;56.22;101631.88;4950796;28;20053;-62
2022/05/05 06:29:48;;;;;;;14.10;10.10;;;;;;;17.85;56.65;101639.75;4944675;28;20051;-60
2022/05/05 06:32:17;;;;;;;13.35;10.07;;;;;;;17.88;56.49;101651.94;4948552;28;20127;-60
2022/05/05 06:34:44;;;;;;;16.42;10.48;;;;;;;17.93;56.52;101653.31;4939193;29;20043;-66
2022/05/05 06:37:12;;;;;;;12.27;10.65;;;;;;;17.95;56.39;101658.53;4951618;28;20511;-66
2022/05/05 06:39:38;;;;;;;15.38;10.23;;;;;;;17.97;56.42;101661.06;4951751;28;20062;-61
2022/05/05 06:42:06;;;;;;;17.63;10.95;;;;;;;17.93;56.61;101653.31;4951930;28;20050;-60
2022/05/05 06:44:32;;;;;;;13.57;11.30;;;;;;;17.94;56.74;101651.50;4951629;28;20496;-61
2022/05/05 06:46:59;;;;;;;16.23;11.60;;;;;;;17.93;56.96;101657.78;4951372;28;20043;-60
2022/05/05 06:49:26;;;;;;;17.45;11.77;;;;;;;17.97;56.72;101656.59;4949481;28;20051;-62
2022/05/05 06:51:53;;;;;;;13.88;11.95;;;;;;;17.98;57.25;101650.34;4950060;28;20043;-60
2022/05/05 06:54:20;;;;;;;17.10;11.50;;;;;;;18.04;56.88;101651.69;4951531;28;20094;-62
2022/05/05 06:56:46;;;;;;;14.90;11.70;;;;;;;18.07;57.16;101659.44;4950303;29;20491;-61
2022/05/05 06:59:13;;;;;;;15.55;10.70;;;;;;;18.13;56.89;101666.94;4951348;28;20058;-61
2022/05/05 07:01:52;;;;;;;13.40;10.95;;;;;;;18.13;56.99;101648.34;4951192;28;20055;-61
2022/05/05 07:07:13;;;;;;;13.32;10.30;;;;;;;18.24;56.98;101651.03;4950792;28;20069;-60
2022/05/05 07:12:27;;;;;;;13.27;10.38;;;;;;;18.24;56.89;101634.28;4951146;28;20047;-60
2022/05/05 07:14:54;;;;;;;12.98;9.98;;;;;;;18.22;56.66;101629.06;4951540;28;20110;-60
2022/05/05 07:17:23;;;;;;;11.98;10.00;;;;;;;18.22;56.87;101628.22;4951538;28;20043;-60
2022/05/05 07:19:52;;;;;;;12.50;9.93;;;;;;;18.25;57.03;101622.69;4945828;28;20050;-60
2022/05/05 07:22:19;;;;;;;12.55;9.95;;;;;;;18.27;57.24;101624.25;4930691;29;20080;-72
2022/05/05 07:24:48;;;;;;;12.15;9.70;;;;;;;18.32;56.86;101625.72;4914511;29;20473;-60
2022/05/05 07:27:15;;;;;;;11.38;9.98;;;;;;;18.33;56.93;101624.75;4923030;29;20044;-60
2022/05/05 07:29:42;;;;;;;13.73;9.32;;;;;;;18.34;56.89;101619.31;4931720;29;20052;-59
2022/05/05 07:32:09;;;;;;;15.07;9.57;;;;;;;18.37;56.53;101621.75;4931850;29;20047;-58
2022/05/05 07:34:38;;;;;;;11.48;9.32;;;;;;;18.39;56.53;101618.97;4931906;29;20563;-71
2022/05/05 07:37:06;;;;;;;11.55;8.70;;;;;;;18.39;56.06;101617.16;4919043;29;20083;-64
2022/05/05 07:39:33;;;;;;;9.77;8.77;;;;;;;18.42;55.97;101616.94;4927119;29;20415;-59
2022/05/05 07:42:00;;;;;;;9.80;8.80;;;;;;;18.48;55.56;101609.47;4931633;29;20099;-59
2022/05/05 07:44:26;;;;;;;12.43;7.90;;;;;;;18.54;54.78;101615.16;4931663;29;20055;-59
2022/05/05 07:46:54;;;;;;;9.48;7.32;;;;;;;18.60;54.61;101608.50;4931600;29;20051;-60
2022/05/05 07:49:21;;;;;;;9.20;7.60;;;;;;;18.63;54.14;101624.22;4931398;29;20050;-59
2022/05/05 07:51:51;;;;;;;9.95;7.10;;;;;;;18.66;53.80;101626.63;4933468;29;20043;-60
2022/05/05 07:54:34;;;;;;;9.68;6.43;;;;;;;18.75;53.38;101625.09;4931711;29;20106;-60
2022/05/05 07:57:02;;;;;;;8.90;6.85;;;;;;;18.81;52.77;101627.28;4930195;29;20051;-59
2022/05/05 07:59:29;;;;;;;12.40;6.35;;;;;;;18.84;52.23;101643.00;4930696;29;20115;-60
2022/05/05 08:01:57;;;;;;;7.80;6.18;;;;;;;18.89;52.17;101642.63;4927460;29;20098;-60
2022/05/05 08:04:24;;;;;;;10.43;6.85;;;;;;;18.93;51.84;101649.44;4926330;28;20119;-70
2022/05/05 08:06:51;;;;;;;8.70;6.70;;;;;;;18.98;51.33;101644.63;4917115;29;20099;-61
2022/05/05 08:09:18;;;;;;;9.40;6.80;;;;;;;19.00;51.35;101649.81;4915821;29;20055;-60
2022/05/05 08:11:45;;;;;;;9.82;7.30;;;;;;;18.99;51.19;101654.28;4912064;29;20052;-65
2022/05/05 08:14:11;;;;;;;11.55;7.30;;;;;;;18.98;50.77;101655.28;4918067;29;20055;-62
2022/05/05 08:16:38;;;;;;;11.00;6.72;;;;;;;19.05;50.77;101655.63;4919890;29;20378;-59
2022/05/05 08:19:06;;;;;;;11.15;6.45;;;;;;;19.07;50.47;101659.84;4916658;29;20056;-59
2022/05/05 08:21:33;;;;;;;11.95;6.90;;;;;;;19.07;50.33;101654.53;4931308;29;20063;-68
2022/05/05 08:29:37;;;;;;;11.00;6.93;;;;;;;19.11;49.75;101657.81;4948561;28;20051;-62
2022/05/05 08:32:04;;;;;;;8.52;6.30;;;;;;;19.14;49.62;101664.72;4950571;28;20048;-61
2022/05/05 08:34:31;;;;;;;10.40;7.05;;;;;;;19.19;49.97;101675.84;4950023;28;20444;-60
2022/05/05 08:36:58;;;;;;;12.18;7.30;;;;;;;19.19;49.88;101682.00;4950213;28;20492;-61
2022/05/05 08:39:24;;;;;;;8.18;6.40;;;;;;;19.15;50.10;101672.56;4950188;28;20055;-60
2022/05/05 08:41:53;;;;;;;9.43;7.00;;;;;;;19.13;50.39;101676.31;4950237;28;20043;-60
2022/05/05 08:44:20;;;;;;;9.40;7.07;;;;;;;19.12;49.88;101678.09;4948723;28;20047;-60
2022/05/05 08:46:48;;;;;;;8.32;6.53;;;;;;;19.13;50.13;101681.63;4949978;28;20047;-60
2022/05/05 08:49:20;;;;;;;10.27;7.15;;;;;;;19.11;50.33;101687.06;4950398;28;20133;-60
2022/05/05 08:51:51;;;;;;;13.23;7.20;;;;;;;19.11;50.40;101687.06;4953527;28;20460;-61
2022/05/05 08:54:21;;;;;;;10.05;6.55;;;;;;;19.12;49.93;101693.22;4953561;28;20055;-61
2022/05/05 08:56:48;;;;;;;9.75;6.78;;;;;;;19.11;49.97;101689.75;4953862;28;20047;-60
2022/05/05 08:59:19;;;;;;;11.68;6.38;;;;;;;19.11;50.14;101689.75;4953009;28;20055;-61
2022/05/05 09:01:46;;;;;;;9.55;7.20;;;;;;;19.13;50.06;101687.78;4953664;28;20510;-60
2022/05/05 09:04:13;;;;;;;11.95;7.07;;;;;;;19.11;50.13;101688.88;4953669;28;20043;-72
2022/05/05 09:06:46;;;;;;;10.90;6.60;;;;;;;19.14;50.19;101688.66;4953386;28;20046;-60
2022/05/05 09:09:25;;;;;;;9.70;6.95;;;;;;;19.18;50.36;101692.75;4961935;28;20043;-60
2022/05/05 09:12:17;;;;;;;9.30;6.50;;;;;;;19.19;50.03;101689.97;4953613;28;20055;-60
2022/05/05 09:14:47;;;;;;;12.75;7.20;;;;;;;19.18;49.83;101690.94;4953562;28;20106;-60
2022/05/05 09:17:15;;;;;;;8.13;6.63;;;;;;;19.18;49.71;101685.59;4952479;28;20051;-60
2022/05/05 09:19:45;;;;;;;10.73;6.07;;;;;;;19.18;49.45;101680.28;4953441;28;20409;-66
2022/05/05 09:22:13;;;;;;;9.50;6.85;;;;;;;19.19;49.14;101684.66;4953334;28;20460;-60
2022/05/05 09:24:43;;;;;;;9.30;6.70;;;;;;;19.20;49.04;101685.50;4953217;28;20050;-64
2022/05/05 09:27:21;;;;;;;12.80;7.38;;;;;;;19.22;48.92;101681.75;4953200;28;20051;-61
2022/05/05 09:30:10;;;;;;;17.08;8.68;;;;;;;19.23;49.29;101672.78;4952980;28;20046;-60
2022/05/05 09:32:39;;;;;;;12.77;7.78;;;;;;;19.25;49.24;101678.00;4953460;28;20114;-60
2022/05/05 09:35:09;;;;;;;8.93;7.80;;;;;;;19.23;49.23;101672.78;4951879;28;20120;-60
2022/05/05 09:37:37;;;;;;;8.90;7.70;;;;;;;19.26;49.32;101669.03;4953192;28;20747;-61
2022/05/05 09:40:08;;;;;;;13.68;8.00;;;;;;;19.25;49.40;101662.88;4953047;28;20047;-72
2022/05/05 09:42:36;;;;;;;10.88;8.45;;;;;;;19.22;49.16;101660.47;4953083;28;20051;-61
2022/05/05 09:45:16;;;;;;;15.27;7.85;;;;;;;19.18;48.87;101659.00;4953012;28;20070;-67
2022/05/05 09:47:45;;;;;;;13.00;9.15;;;;;;;19.16;48.89;101660.97;4952748;28;20536;-60
2022/05/05 09:50:12;;;;;;;13.43;9.52;;;;;;;19.21;48.90;101660.56;4952656;29;20047;-60
2022/05/05 09:58:16;;;;;;;10.80;9.25;;;;;;;19.20;49.40;101661.56;4952945;28;20051;-60
2022/05/05 10:00:49;;;;;;;14.05;10.18;;;;;;;19.19;49.70;101658.03;4939189;28;20059;-60
2022/05/05 10:06:16;;;;;;;12.70;10.00;;;;;;;19.22;50.13;101660.47;4952184;29;20055;-60
2022/05/05 10:08:45;;;;;;;19.73;9.73;;;;;;;19.21;49.84;101661.44;4951274;28;20047;-71
2022/05/05 10:11:16;;;;;;;12.52;9.65;;;;;;;19.22;50.09;101655.16;4952457;28;20063;-61
2022/05/05 10:13:45;;;;;;;13.43;9.90;;;;;;;19.23;49.66;101658.66;4952653;28;20047;-60
2022/05/05 10:16:16;;;;;;;14.70;10.55;;;;;;;19.22;50.31;101663.13;4952568;28;20043;-62
2022/05/05 10:18:43;;;;;;;16.20;10.63;;;;;;;19.24;50.14;101661.19;4952337;28;20053;-60
2022/05/05 10:21:49;;;;;;;11.43;9.68;;;;;;;19.23;50.16;101659.47;4951757;28;20062;-60
2022/05/05 10:24:34;;;;;;;13.25;9.60;;;;;;;19.29;49.70;101654.63;4933632;29;20047;-62
2022/05/05 10:27:03;;;;;;;13.75;9.07;;;;;;;19.32;49.65;101662.41;4940990;29;20058;-61
2022/05/05 10:29:40;;;;;;;14.25;9.82;;;;;;;19.33;50.12;101656.94;4952127;28;20051;-61
2022/05/05 10:32:16;;;;;;;10.70;9.05;;;;;;;19.34;49.85;101653.31;4952044;28;20051;-60
2022/05/05 10:34:45;;;;;;;9.80;8.77;;;;;;;19.34;49.51;101652.50;4952486;28;20126;-68
2022/05/05 10:37:20;;;;;;;10.60;8.90;;;;;;;19.36;49.46;101662.03;4952278;28;20050;-60
2022/05/05 10:40:01;;;;;;;12.00;9.50;;;;;;;19.36;49.73;101650.53;4950914;28;20054;-60
2022/05/05 10:42:34;;;;;;;12.57;9.68;;;;;;;19.39;49.69;101656.47;4951828;28;20124;-60
2022/05/05 10:45:06;;;;;;;14.60;9.85;;;;;;;19.41;49.31;101651.88;4951964;28;20484;-60
2022/05/05 10:47:55;;;;;;;23.17;11.75;;;;;;;19.41;49.24;101649.22;4951849;28;20103;-60
2022/05/05 10:50:53;;;;;;;14.65;10.48;;;;;;;19.44;49.34;101650.78;4951506;28;20055;-60
2022/05/05 10:53:40;;;;;;;13.60;9.98;;;;;;;19.45;49.41;101651.63;4946917;29;20047;-60
2022/05/05 10:56:31;;;;;;;15.23;11.15;;;;;;;19.42;49.71;101658.03;4950806;28;20410;-60
2022/05/05 10:59:08;;;;;;;12.27;10.05;;;;;;;19.42;49.64;101650.03;4951120;29;20047;-60
2022/05/05 11:01:44;;;;;;;13.13;11.57;;;;;;;19.41;49.61;101646.56;4944907;29;20108;-60
2022/05/05 11:04:35;;;;;;;13.30;11.27;;;;;;;19.41;49.90;101651.88;4951514;28;20059;-61
2022/05/05 11:07:20;;;;;;;14.05;11.60;;;;;;;19.46;49.66;101645.34;4947216;29;20051;-60
2022/05/05 11:09:46;;;;;;;12.80;9.30;;;;;;;19.51;49.72;101653.78;4954218;28;20084;-62
2022/05/05 11:12:17;;;;;;;16.00;11.25;;;;;;;19.55;50.19;101655.22;4958032;28;20047;-62
2022/05/05 11:23:43;;;;;;;20.75;12.65;;;;;;;19.50;50.40;101649.44;4939663;29;20129;-59
2022/05/05 11:26:13;;;;;;;16.30;11.23;;;;;;;19.52;50.33;101636.84;4947829;28;20519;-62
2022/05/05 11:28:40;;;;;;;16.08;10.07;;;;;;;19.54;50.45;101643.75;4945802;28;20051;-59
2022/05/05 11:31:20;;;;;;;20.65;10.82;;;;;;;19.60;50.75;101633.56;4944612;28;20070;-60
2022/05/05 11:33:56;;;;;;;18.70;9.50;;;;;;;19.62;50.83;101635.13;4948715;28;20106;-59
2022/05/05 11:36:27;;;;;;;;;;;;;;;19.74;51.12;101633.28;4947187;28;20139;-59
2022/05/05 11:38:55;;;;;;;15.73;9.50;;;;;;;19.78;51.11;101629.38;4935124;29;19954;-65
2022/05/05 11:41:41;;;;;;;28.05;9.90;;;;;;;19.85;51.50;101632.44;4938575;29;20043;-60
2022/05/05 11:44:14;;;;;;;24.73;10.80;;;;;;;19.84;51.49;101628.91;4949260;28;20044;-60
2022/05/05 11:46:41;;;;;;;11.98;8.90;;;;;;;19.81;51.61;101626.50;4944832;28;20130;-59
2022/05/05 11:49:09;;;;;;;17.40;9.82;;;;;;;19.84;51.28;101628.91;4947380;28;20053;-59
2022/05/05 11:51:36;;;;;;;11.30;10.07;;;;;;;19.84;51.78;101620.09;4949930;28;20106;-61
2022/05/05 11:54:14;;;;;;;15.02;10.90;;;;;;;19.88;51.90;101625.06;4947546;28;20046;-62
2022/05/05 11:56:47;;;;;;;16.25;10.13;;;;;;;19.93;52.43;101618.50;4951088;28;20043;-61
2022/05/05 12:02:16;;;;;;;12.43;8.55;;;;;;;19.92;52.27;101612.31;4949257;28;20054;-64
2022/05/05 12:04:45;;;;;;;17.08;9.27;;;;;;;19.94;51.63;101613.03;4957792;28;20456;-62
2022/05/05 12:07:20;;;;;;;16.40;9.05;;;;;;;20.00;52.34;101620.53;4943925;28;20043;-68
2022/05/05 12:09:49;;;;;;;9.73;8.73;;;;;;;19.90;51.90;101615.09;4950446;28;20047;-62